Time;durP1;ratioP1;P1;durP2;ratioP2;P2;SDS_P1;SDS_P2;PMS_P1;PMS_P2;Temp;Humidity;BMP_temperature;BMP_pressure;BME280_temperature;BME280_humidity;BME280_pressure;Samples;Min_cycle;Max_cycle;Signal;HPM_P1;HPM_P2
2021/11/11 00:02:22;;;;;;;26.42;9.02;;;;;;;;;;5040085;28;20034;-59
2021/11/11 00:04:49;;;;;;;23.90;8.90;;;;;;;;;;5047187;28;20348;-60
2021/11/11 00:07:16;;;;;;;28.63;9.35;;;;;;;;;;5059747;28;20036;-59
2021/11/11 00:09:43;;;;;;;25.15;9.45;;;;;;;;;;5058175;28;20057;-58
2021/11/11 00:12:09;;;;;;;29.55;10.57;;;;;;;;;;5062317;28;20101;-59
2021/11/11 00:14:37;;;;;;;26.42;9.48;;;;;;;;;;5054914;28;20032;-60
2021/11/11 00:17:04;;;;;;;27.60;9.43;;;;;;;;;;5040487;28;20095;-59
2021/11/11 00:19:30;;;;;;;28.52;10.75;;;;;;;;;;5037646;28;20069;-58
2021/11/11 00:21:57;;;;;;;23.95;10.27;;;;;;;;;;5062217;28;20055;-59
2021/11/11 00:24:23;;;;;;;22.65;9.43;;;;;;;;;;5062323;28;20079;-59
2021/11/11 00:26:51;;;;;;;33.30;9.70;;;;;;;;;;5056086;28;20426;-58
2021/11/11 00:29:18;;;;;;;32.67;9.65;;;;;;;;;;5052897;28;20045;-58
2021/11/11 00:31:46;;;;;;;27.83;10.35;;;;;;;;;;5051403;28;20467;-60
2021/11/11 00:34:12;;;;;;;26.70;9.05;;;;;;;;;;5039815;28;20049;-58
2021/11/11 00:36:39;;;;;;;32.03;10.75;;;;;;;;;;5038105;28;20044;-58
2021/11/11 00:39:06;;;;;;;33.63;12.98;;;;;;;;;;5040628;28;20171;-59
2021/11/11 00:41:33;;;;;;;37.47;12.25;;;;;;;;;;5037974;28;20066;-59
2021/11/11 00:43:59;;;;;;;34.97;11.07;;;;;;;;;;5040804;28;20095;-59
2021/11/11 00:46:25;;;;;;;24.38;9.30;;;;;;;;;;5036914;28;20045;-58
2021/11/11 00:48:53;;;;;;;25.83;10.07;;;;;;;;;;5040715;28;20073;-59
2021/11/11 00:51:20;;;;;;;29.90;9.90;;;;;;;;;;5037954;28;20405;-58
2021/11/11 00:53:47;;;;;;;28.58;9.85;;;;;;;;;;5040443;28;20038;-59
2021/11/11 00:56:13;;;;;;;31.35;10.40;;;;;;;;;;5038678;28;20052;-59
2021/11/11 00:58:40;;;;;;;26.27;9.65;;;;;;;;;;5041395;28;20048;-58
2021/11/11 01:01:13;;;;;;;25.45;9.48;;;;;;;;;;5033870;28;20028;-59
2021/11/11 01:03:41;;;;;;;26.23;9.90;;;;;;;;;;5043949;28;20052;-59
2021/11/11 01:06:09;;;;;;;26.20;9.77;;;;;;;;;;5056269;28;20041;-58
2021/11/11 01:08:35;;;;;;;33.43;9.63;;;;;;;;;;5053354;28;20052;-55
2021/11/11 01:11:03;;;;;;;30.10;9.23;;;;;;;;;;5062928;28;20282;-57
2021/11/11 01:13:30;;;;;;;32.85;10.25;;;;;;;;;;5060459;28;20064;-58
2021/11/11 01:15:57;;;;;;;29.48;9.95;;;;;;;;;;5062985;28;20049;-59
2021/11/11 01:18:23;;;;;;;26.40;10.35;;;;;;;;;;5048206;28;20092;-58
2021/11/11 01:20:50;;;;;;;30.05;9.55;;;;;;;;;;5043526;28;20076;-58
2021/11/11 01:23:17;;;;;;;33.28;10.55;;;;;;;;;;5041338;28;20149;-57
2021/11/11 01:25:44;;;;;;;30.80;10.23;;;;;;;;;;5043331;28;20038;-58
2021/11/11 01:28:13;;;;;;;27.17;9.82;;;;;;;;;;5039957;28;20033;-58
2021/11/11 01:30:40;;;;;;;;;;;;;;;;;;5041920;28;20045;-58
2021/11/11 01:33:07;;;;;;;24.38;9.25;;;;;;;;;;5038211;28;19929;-54
2021/11/11 01:35:33;;;;;;;28.60;10.02;;;;;;;;;;5042397;28;20038;-57
2021/11/11 01:38:00;;;;;;;38.53;11.55;;;;;;;;;;5025694;28;20051;-57
2021/11/11 01:40:28;;;;;;;27.35;9.98;;;;;;;;;;5042662;28;20037;-58
2021/11/11 01:42:55;;;;;;;30.40;11.10;;;;;;;;;;5038493;28;20130;-58
2021/11/11 01:45:24;;;;;;;33.72;10.75;;;;;;;;;;5043600;28;20130;-58
2021/11/11 01:47:50;;;;;;;36.47;11.32;;;;;;;;;;5039841;28;20052;-56
2021/11/11 01:50:17;;;;;;;26.27;10.05;;;;;;;;;;5063910;28;20042;-56
2021/11/11 01:52:43;;;;;;;28.52;11.15;;;;;;;;;;5062623;28;20041;-59
2021/11/11 01:55:10;;;;;;;27.55;11.27;;;;;;;;;;5039044;28;20123;-57
2021/11/11 01:57:38;;;;;;;36.20;10.90;;;;;;;;;;5043296;28;20053;-57
2021/11/11 02:00:09;;;;;;;30.08;11.13;;;;;;;;;;5040027;28;20037;-57
2021/11/11 02:02:36;;;;;;;30.60;11.70;;;;;;;;;;5042771;28;20069;-56
2021/11/11 02:05:02;;;;;;;29.58;10.98;;;;;;;;;;5039583;28;20045;-57
2021/11/11 02:07:29;;;;;;;31.52;11.57;;;;;;;;;;5041188;28;20018;-57
2021/11/11 02:09:55;;;;;;;32.42;11.23;;;;;;;;;;5049562;28;20060;-58
2021/11/11 02:12:22;;;;;;;35.80;11.48;;;;;;;;;;5052115;28;20342;-59
2021/11/11 02:14:50;;;;;;;31.60;11.82;;;;;;;;;;5039652;28;20056;-58
2021/11/11 02:17:24;;;;;;;29.40;11.77;;;;;;;;;;5041059;28;20038;-56
2021/11/11 02:19:59;;;;;;;29.05;11.82;;;;;;;;;;5049181;28;20048;-58
2021/11/11 02:22:27;;;;;;;28.05;11.25;;;;;;;;;;5080434;28;20048;-58
2021/11/11 02:24:53;;;;;;;33.38;13.20;;;;;;;;;;5073142;28;20033;-58
2021/11/11 02:27:20;;;;;;;31.10;11.38;;;;;;;;;;5062580;28;20037;-56
2021/11/11 02:29:47;;;;;;;30.92;12.75;;;;;;;;;;5072086;28;20048;-57
2021/11/11 02:32:14;;;;;;;27.20;11.98;;;;;;;;;;5042471;28;20040;-54
2021/11/11 02:34:41;;;;;;;28.70;11.15;;;;;;;;;;5037752;28;20041;-55
2021/11/11 02:37:09;;;;;;;37.50;12.63;;;;;;;;;;5040881;28;20053;-57
2021/11/11 02:39:37;;;;;;;30.30;12.40;;;;;;;;;;5042429;28;20040;-54
2021/11/11 02:42:07;;;;;;;31.77;13.52;;;;;;;;;;5036760;28;20302;-58
2021/11/11 02:44:34;;;;;;;29.92;12.00;;;;;;;;;;5042598;28;20073;-55
2021/11/11 02:47:00;;;;;;;40.28;12.63;;;;;;;;;;5040818;28;20041;-56
2021/11/11 02:49:31;;;;;;;35.30;13.40;;;;;;;;;;5040746;28;20092;-57
2021/11/11 02:51:58;;;;;;;33.00;12.73;;;;;;;;;;5053576;28;20040;-59
2021/11/11 02:54:26;;;;;;;38.10;13.60;;;;;;;;;;5078482;28;20102;-57
2021/11/11 02:56:52;;;;;;;34.13;12.73;;;;;;;;;;5059996;28;20048;-57
2021/11/11 02:59:18;;;;;;;30.00;11.43;;;;;;;;;;5061496;28;20350;-58
2021/11/11 03:01:46;;;;;;;33.35;12.85;;;;;;;;;;5049342;28;20052;-57
2021/11/11 03:04:13;;;;;;;32.67;13.87;;;;;;;;;;5062370;28;20490;-56
2021/11/11 03:06:39;;;;;;;34.13;13.45;;;;;;;;;;5050470;28;20057;-55
2021/11/11 03:09:06;;;;;;;35.55;13.07;;;;;;;;;;5041800;28;20134;-58
2021/11/11 03:11:34;;;;;;;34.05;13.38;;;;;;;;;;5038467;28;20122;-58
2021/11/11 03:14:01;;;;;;;29.55;12.35;;;;;;;;;;5040709;28;20045;-57
2021/11/11 03:16:27;;;;;;;35.50;12.75;;;;;;;;;;5037875;28;20064;-56
2021/11/11 03:18:54;;;;;;;32.17;11.95;;;;;;;;;;5041817;28;20065;-53
2021/11/11 03:21:21;;;;;;;29.77;13.13;;;;;;;;;;5039237;28;20409;-58
2021/11/11 03:23:47;;;;;;;37.90;14.15;;;;;;;;;;5076114;28;20450;-55
2021/11/11 03:26:18;;;;;;;34.03;12.88;;;;;;;;;;5060363;28;20044;-56
2021/11/11 03:28:46;;;;;;;34.92;13.10;;;;;;;;;;5051206;28;20068;-58
2021/11/11 03:31:17;;;;;;;35.20;12.88;;;;;;;;;;5051100;28;20050;-57
2021/11/11 03:33:46;;;;;;;38.38;12.50;;;;;;;;;;5063986;28;20059;-58
2021/11/11 03:36:13;;;;;;;31.80;12.50;;;;;;;;;;5062341;28;20052;-57
2021/11/11 03:38:39;;;;;;;36.30;13.65;;;;;;;;;;5058744;28;20040;-58
2021/11/11 03:41:06;;;;;;;33.10;13.20;;;;;;;;;;5061474;28;20047;-59
2021/11/11 03:43:33;;;;;;;32.35;12.75;;;;;;;;;;5068161;28;20040;-58
2021/11/11 03:46:01;;;;;;;33.95;12.52;;;;;;;;;;5084366;28;20902;-56
2021/11/11 03:48:27;;;;;;;39.38;12.90;;;;;;;;;;5070252;28;20043;-57
2021/11/11 03:50:54;;;;;;;34.42;13.13;;;;;;;;;;5063030;28;20036;-55
2021/11/11 03:53:20;;;;;;;28.02;12.73;;;;;;;;;;5063313;28;20105;-57
2021/11/11 03:55:47;;;;;;;33.28;12.75;;;;;;;;;;5080274;28;20063;-57
2021/11/11 03:58:17;;;;;;;32.60;13.65;;;;;;;;;;5073910;28;20055;-56
2021/11/11 04:00:44;;;;;;;28.75;13.25;;;;;;;;;;5060881;28;20120;-57
2021/11/11 04:03:12;;;;;;;32.10;12.82;;;;;;;;;;5057841;28;20049;-58
2021/11/11 04:05:39;;;;;;;32.23;13.17;;;;;;;;;;5060883;28;20152;-60
2021/11/11 04:08:05;;;;;;;36.17;13.15;;;;;;;;;;5060228;28;20854;-59
2021/11/11 04:10:32;;;;;;;32.20;12.38;;;;;;;;;;5057222;28;20068;-57
2021/11/11 04:12:59;;;;;;;31.90;11.93;;;;;;;;;;5059902;28;20059;-58
2021/11/11 04:15:26;;;;;;;27.85;11.52;;;;;;;;;;5056197;28;20408;-59
2021/11/11 04:17:53;;;;;;;31.42;12.82;;;;;;;;;;5061342;28;20279;-56
2021/11/11 04:20:21;;;;;;;27.77;12.35;;;;;;;;;;5058022;28;20118;-59
2021/11/11 04:22:48;;;;;;;29.27;10.88;;;;;;;;;;5059816;28;20049;-57
2021/11/11 04:25:19;;;;;;;34.38;12.63;;;;;;;;;;5069042;28;20180;-58
2021/11/11 04:27:50;;;;;;;31.08;12.70;;;;;;;;;;5080379;28;20088;-58
2021/11/11 04:30:24;;;;;;;34.42;12.27;;;;;;;;;;5076837;28;20040;-58
2021/11/11 04:32:51;;;;;;;35.35;12.38;;;;;;;;;;5075666;28;20458;-58
2021/11/11 04:35:17;;;;;;;30.83;12.57;;;;;;;;;;5059375;28;20572;-58
2021/11/11 04:37:54;;;;;;;33.67;12.48;;;;;;;;;;5062066;28;20041;-54
2021/11/11 05:05:22;;;;;;;29.67;11.75;;;;;;;;;;5041420;28;20049;-57
2021/11/11 05:07:50;;;;;;;28.95;12.00;;;;;;;;;;5061413;28;20056;-58
2021/11/11 05:10:18;;;;;;;30.02;11.13;;;;;;;;;;5064914;28;20037;-58
2021/11/11 05:12:45;;;;;;;30.10;12.20;;;;;;;;;;5063404;28;20041;-58
2021/11/11 05:15:11;;;;;;;29.00;12.82;;;;;;;;;;5065100;28;20037;-55
2021/11/11 05:17:40;;;;;;;29.38;12.70;;;;;;;;;;5061404;28;20040;-57
2021/11/11 05:20:07;;;;;;;31.17;12.40;;;;;;;;;;5063691;28;20068;-57
2021/11/11 05:22:34;;;;;;;31.65;12.82;;;;;;;;;;5072412;28;20041;-55
2021/11/11 05:25:00;;;;;;;37.13;13.15;;;;;;;;;;5083462;28;20044;-56
2021/11/11 05:27:28;;;;;;;28.17;11.88;;;;;;;;;;5079511;28;20051;-58
2021/11/11 05:29:55;;;;;;;35.73;13.73;;;;;;;;;;5081391;28;20133;-58
2021/11/11 05:32:22;;;;;;;33.63;13.50;;;;;;;;;;5079854;28;20247;-58
2021/11/11 05:34:51;;;;;;;34.78;11.68;;;;;;;;;;5062936;28;20498;-58
2021/11/11 05:37:17;;;;;;;;;;;;;;;;;;5061255;28;20048;-57
2021/11/11 05:39:43;;;;;;;30.30;11.15;;;;;;;;;;5061291;28;19998;-56
2021/11/11 05:42:10;;;;;;;36.13;11.75;;;;;;;;;;5058717;28;20045;-57
2021/11/11 05:44:38;;;;;;;27.30;11.65;;;;;;;;;;5062981;28;20080;-56
2021/11/11 05:47:04;;;;;;;34.35;12.05;;;;;;;;;;5063398;28;20036;-58
2021/11/11 05:49:31;;;;;;;28.73;12.07;;;;;;;;;;5063267;28;20056;-56
2021/11/11 05:51:58;;;;;;;35.97;13.23;;;;;;;;;;5063202;28;20052;-58
2021/11/11 05:54:24;;;;;;;37.92;12.88;;;;;;;;;;5058438;28;20044;-54
2021/11/11 05:56:51;;;;;;;30.55;12.25;;;;;;;;;;5063235;28;20175;-58
2021/11/11 05:59:17;;;;;;;34.25;13.10;;;;;;;;;;5073527;28;20052;-59
2021/11/11 06:01:47;;;;;;;30.20;11.55;;;;;;;;;;5081354;28;20056;-55
2021/11/11 06:04:13;;;;;;;30.55;12.25;;;;;;;;;;5065214;28;20118;-59
2021/11/11 06:06:40;;;;;;;29.20;11.88;;;;;;;;;;5062739;28;20501;-57
2021/11/11 06:09:06;;;;;;;26.35;11.93;;;;;;;;;;5069112;28;20100;-57
2021/11/11 06:11:32;;;;;;;32.53;12.13;;;;;;;;;;5082019;28;20040;-57
2021/11/11 06:14:00;;;;;;;34.72;12.25;;;;;;;;;;5064277;28;20040;-56
2021/11/11 06:16:26;;;;;;;38.28;12.88;;;;;;;;;;5068482;28;20522;-58
2021/11/11 06:18:54;;;;;;;37.85;13.80;;;;;;;;;;5065500;28;20044;-58
2021/11/11 06:21:22;;;;;;;32.08;12.65;;;;;;;;;;5070825;28;20040;-58
2021/11/11 06:23:50;;;;;;;29.02;12.13;;;;;;;;;;5068710;28;20433;-54
2021/11/11 06:26:18;;;;;;;34.08;12.18;;;;;;;;;;5069282;28;20063;-58
2021/11/11 06:28:45;;;;;;;29.50;12.40;;;;;;;;;;5068604;28;20052;-58
2021/11/11 06:31:13;;;;;;;33.05;12.50;;;;;;;;;;5071339;28;20132;-55
2021/11/11 06:33:39;;;;;;;42.20;12.63;;;;;;;;;;5069593;28;20056;-57
2021/11/11 06:36:07;;;;;;;31.83;12.75;;;;;;;;;;5065814;28;20056;-55
2021/11/11 06:38:34;;;;;;;32.60;11.65;;;;;;;;;;5066992;28;20122;-55
2021/11/11 06:41:00;;;;;;;34.45;11.75;;;;;;;;;;5062898;28;20044;-58
2021/11/11 06:43:27;;;;;;;40.42;12.43;;;;;;;;;;5064709;28;20052;-58
2021/11/11 06:45:53;;;;;;;33.65;12.25;;;;;;;;;;5042523;28;20114;-56
2021/11/11 06:48:20;;;;;;;37.40;12.52;;;;;;;;;;5052520;28;20025;-56
2021/11/11 06:50:48;;;;;;;31.63;12.63;;;;;;;;;;5044183;28;20038;-57
2021/11/11 06:53:17;;;;;;;28.00;11.25;;;;;;;;;;5050216;28;20045;-57
2021/11/11 06:55:44;;;;;;;31.33;11.35;;;;;;;;;;5053428;28;20048;-57
2021/11/11 06:58:11;;;;;;;33.97;13.05;;;;;;;;;;5058053;28;20063;-55
2021/11/11 07:00:38;;;;;;;31.48;12.23;;;;;;;;;;5047244;28;20049;-58
2021/11/11 07:03:04;;;;;;;33.15;12.40;;;;;;;;;;5040816;28;20045;-58
2021/11/11 07:05:31;;;;;;;28.23;11.15;;;;;;;;;;5039083;28;20163;-55
2021/11/11 07:07:58;;;;;;;37.22;13.30;;;;;;;;;;5041336;28;20122;-56
2021/11/11 07:10:26;;;;;;;29.38;11.95;;;;;;;;;;5038245;28;20057;-57
2021/11/11 07:12:52;;;;;;;32.97;12.38;;;;;;;;;;5053920;28;20044;-55
2021/11/11 07:15:20;;;;;;;34.33;12.68;;;;;;;;;;5060381;28;20040;-57
2021/11/11 07:17:47;;;;;;;34.15;13.10;;;;;;;;;;5048705;28;20037;-58
2021/11/11 07:20:15;;;;;;;33.80;11.77;;;;;;;;;;5054406;28;20041;-57
2021/11/11 07:22:43;;;;;;;32.08;12.48;;;;;;;;;;5040337;28;20037;-57
2021/11/11 07:25:10;;;;;;;34.63;12.25;;;;;;;;;;5041047;28;20118;-57
2021/11/11 07:27:38;;;;;;;27.77;11.73;;;;;;;;;;5036383;28;20322;-57
2021/11/11 07:30:06;;;;;;;27.60;10.68;;;;;;;;;;5041404;28;20049;-55
2021/11/11 07:32:33;;;;;;;29.05;11.52;;;;;;;;;;5038464;28;20054;-56
2021/11/11 07:34:59;;;;;;;29.98;10.95;;;;;;;;;;5061594;28;20044;-56
2021/11/11 07:37:26;;;;;;;29.10;11.30;;;;;;;;;;5057955;28;20117;-56
2021/11/11 07:39:53;;;;;;;31.13;11.65;;;;;;;;;;5060439;28;20151;-56
2021/11/11 07:42:22;;;;;;;32.25;12.38;;;;;;;;;;5058781;28;20133;-54
2021/11/11 07:44:51;;;;;;;29.63;10.73;;;;;;;;;;5052626;28;20103;-57
2021/11/11 07:47:26;;;;;;;30.35;11.38;;;;;;;;;;5036842;28;20032;-56
2021/11/11 07:49:52;;;;;;;31.20;11.50;;;;;;;;;;5051023;28;20058;-55
2021/11/11 07:52:19;;;;;;;23.92;10.05;;;;;;;;;;5038528;28;20672;-57
2021/11/11 07:54:46;;;;;;;27.17;11.35;;;;;;;;;;5043515;28;20056;-56
2021/11/11 07:57:13;;;;;;;29.50;11.45;;;;;;;;;;5037619;28;20122;-56
2021/11/11 07:59:41;;;;;;;28.55;11.45;;;;;;;;;;5041262;28;20029;-57
2021/11/11 08:02:10;;;;;;;33.60;12.15;;;;;;;;;;5041956;28;20041;-55
2021/11/11 08:04:37;;;;;;;32.60;12.60;;;;;;;;;;5046540;28;20479;-55
2021/11/11 08:07:03;;;;;;;42.35;12.93;;;;;;;;;;5040540;28;20037;-61
2021/11/11 08:09:30;;;;;;;32.88;11.43;;;;;;;;;;5039835;28;20044;-56
2021/11/11 08:11:56;;;;;;;32.60;12.35;;;;;;;;;;5055564;28;20053;-57
2021/11/11 08:14:24;;;;;;;30.48;12.00;;;;;;;;;;5046667;28;20052;-55
2021/11/11 08:16:51;;;;;;;30.48;11.98;;;;;;;;;;5061368;28;20043;-56
2021/11/11 08:19:19;;;;;;;31.55;11.70;;;;;;;;;;5045472;28;20051;-57
2021/11/11 08:21:46;;;;;;;29.25;11.82;;;;;;;;;;5039586;28;20059;-57
2021/11/11 08:24:12;;;;;;;28.27;11.13;;;;;;;;;;5038928;28;20131;-56
2021/11/11 08:26:39;;;;;;;30.95;12.15;;;;;;;;;;5041584;28;20056;-56
2021/11/11 08:29:05;;;;;;;31.38;11.65;;;;;;;;;;5043268;28;20028;-57
2021/11/11 08:31:33;;;;;;;31.60;13.00;;;;;;;;;;5062286;28;20059;-57
2021/11/11 08:33:59;;;;;;;36.75;13.32;;;;;;;;;;5067954;28;20045;-56
2021/11/11 08:36:28;;;;;;;33.08;12.98;;;;;;;;;;5040924;28;20056;-57
2021/11/11 08:38:55;;;;;;;34.10;13.55;;;;;;;;;;5039767;28;20060;-55
2021/11/11 08:41:21;;;;;;;32.17;13.48;;;;;;;;;;5060433;28;20037;-53
2021/11/11 08:43:48;;;;;;;31.90;11.85;;;;;;;;;;5060372;28;20110;-55
2021/11/11 08:46:14;;;;;;;33.35;12.93;;;;;;;;;;5036751;28;20082;-54
2021/11/11 08:48:41;;;;;;;32.00;12.55;;;;;;;;;;5031662;28;20053;-56
2021/11/11 08:51:08;;;;;;;38.25;13.70;;;;;;;;;;5037633;28;20058;-57
2021/11/11 08:53:36;;;;;;;36.63;13.02;;;;;;;;;;5040045;28;20042;-54
2021/11/11 08:56:02;;;;;;;35.77;13.57;;;;;;;;;;5040682;28;20033;-56
2021/11/11 08:58:30;;;;;;;30.60;12.32;;;;;;;;;;5039516;28;20271;-53
2021/11/11 09:01:00;;;;;;;31.67;13.20;;;;;;;;;;5049113;28;20029;-57
2021/11/11 09:03:27;;;;;;;32.72;12.90;;;;;;;;;;5060837;28;20069;-56
2021/11/11 09:05:53;;;;;;;33.72;13.00;;;;;;;;;;5064605;28;20114;-57
2021/11/11 09:08:20;;;;;;;34.30;12.93;;;;;;;;;;5042484;28;20472;-54
2021/11/11 09:10:48;;;;;;;31.45;12.25;;;;;;;;;;5042245;28;20092;-56
2021/11/11 09:13:15;;;;;;;34.28;12.65;;;;;;;;;;5042715;28;20037;-58
2021/11/11 09:15:41;;;;;;;27.60;12.43;;;;;;;;;;5036430;28;20045;-57
2021/11/11 09:18:08;;;;;;;31.60;13.27;;;;;;;;;;5040537;28;20051;-55
2021/11/11 09:20:35;;;;;;;29.45;11.45;;;;;;;;;;5037568;28;20037;-54
2021/11/11 09:23:03;;;;;;;31.30;12.10;;;;;;;;;;5041411;28;20037;-57
2021/11/11 09:25:31;;;;;;;31.63;12.95;;;;;;;;;;5040489;28;20130;-58
2021/11/11 09:27:59;;;;;;;34.28;12.80;;;;;;;;;;5041123;28;20057;-56
2021/11/11 09:30:28;;;;;;;36.72;13.88;;;;;;;;;;5044644;28;20070;-57
2021/11/11 09:32:55;;;;;;;29.83;12.50;;;;;;;;;;5056202;28;20043;-57
2021/11/11 09:35:21;;;;;;;37.58;14.18;;;;;;;;;;5062813;28;20079;-55
2021/11/11 09:37:49;;;;;;;28.80;12.38;;;;;;;;;;5045931;28;20068;-58
2021/11/11 09:40:17;;;;;;;38.15;14.15;;;;;;;;;;5044192;28;20098;-56
2021/11/11 09:42:44;;;;;;;35.65;13.32;;;;;;;;;;5052310;28;20041;-58
2021/11/11 09:45:14;;;;;;;32.10;12.20;;;;;;;;;;5078877;28;20056;-57
2021/11/11 09:47:41;;;;;;;32.60;13.00;;;;;;;;;;5050701;28;20056;-57
2021/11/11 09:50:09;;;;;;;35.03;12.95;;;;;;;;;;5058458;28;20049;-57
2021/11/11 09:52:39;;;;;;;37.65;13.50;;;;;;;;;;5049506;28;20080;-57
2021/11/11 10:00:35;;;;;;;34.95;13.10;;;;;;;;;;5040690;28;20021;-57
2021/11/11 10:03:02;;;;;;;35.85;13.48;;;;;;;;;;5038282;28;20025;-56
2021/11/11 10:05:28;;;;;;;38.95;14.23;;;;;;;;;;5042557;28;20122;-55
2021/11/11 10:07:55;;;;;;;34.22;13.55;;;;;;;;;;5044350;28;20134;-58
2021/11/11 10:10:34;;;;;;;31.65;13.45;;;;;;;;;;5061494;28;20037;-57
2021/11/11 10:13:14;;;;;;;32.50;11.43;;;;;;;;;;5048496;28;20053;-57
2021/11/11 10:16:01;;;;;;;36.03;13.52;;;;;;;;;;5060377;28;20029;-56
2021/11/11 10:18:38;;;;;;;31.08;13.50;;;;;;;;;;5056957;28;20069;-57
2021/11/11 10:21:18;;;;;;;40.28;13.63;;;;;;;;;;5060405;28;20041;-56
2021/11/11 10:23:45;;;;;;;33.03;12.45;;;;;;;;;;5057894;28;20060;-58
2021/11/11 10:26:19;;;;;;;36.92;13.23;;;;;;;;;;5061641;28;20064;-56
2021/11/11 10:28:46;;;;;;;34.33;13.63;;;;;;;;;;5051747;28;20127;-56
2021/11/11 10:31:15;;;;;;;35.75;14.35;;;;;;;;;;5043596;28;20037;-57
2021/11/11 10:33:57;;;;;;;40.35;13.43;;;;;;;;;;5039035;28;20041;-56
2021/11/11 10:36:44;;;;;;;33.63;13.70;;;;;;;;;;5042420;28;20029;-56
2021/11/11 10:39:11;;;;;;;41.03;15.45;;;;;;;;;;5044093;28;20041;-57
2021/11/11 10:41:38;;;;;;;39.50;14.20;;;;;;;;;;5079154;28;20121;-57
2021/11/11 10:44:20;;;;;;;35.22;14.25;;;;;;;;;;5055123;28;20045;-57
2021/11/11 10:46:49;;;;;;;35.50;14.02;;;;;;;;;;5042126;28;20033;-57
2021/11/11 10:49:23;;;;;;;38.95;14.32;;;;;;;;;;5039405;28;20033;-56
2021/11/11 10:51:51;;;;;;;37.63;14.95;;;;;;;;;;5041870;28;20056;-58
2021/11/11 10:54:18;;;;;;;35.08;14.20;;;;;;;;;;5041380;28;20041;-58
2021/11/11 10:56:45;;;;;;;40.10;15.07;;;;;;;;;;5026035;28;20045;-57
2021/11/11 10:59:15;;;;;;;31.75;14.13;;;;;;;;;;5040300;28;20072;-57
2021/11/11 11:01:43;;;;;;;43.30;16.17;;;;;;;;;;5042974;28;20045;-56
2021/11/11 11:04:24;;;;;;;40.30;15.68;;;;;;;;;;5061418;28;20037;-58
2021/11/11 11:06:53;;;;;;;42.85;15.68;;;;;;;;;;5063005;28;20037;-57
2021/11/11 11:09:19;;;;;;;;;;;;;;;;;;5059906;28;20159;-55
2021/11/11 11:11:46;;;;;;;34.85;13.15;;;;;;;;;;5056352;28;19916;-57
2021/11/11 11:14:14;;;;;;;36.50;15.63;;;;;;;;;;5061065;28;20044;-56
2021/11/11 11:16:41;;;;;;;40.13;16.83;;;;;;;;;;5056870;28;20324;-56
2021/11/11 11:19:08;;;;;;;40.17;15.68;;;;;;;;;;5060093;28;20490;-57
2021/11/11 11:21:39;;;;;;;40.53;15.85;;;;;;;;;;5044599;28;20123;-57
2021/11/11 11:24:07;;;;;;;44.50;15.68;;;;;;;;;;5041370;28;20033;-57
2021/11/11 11:26:35;;;;;;;47.07;17.67;;;;;;;;;;5040032;28;20065;-57
2021/11/11 11:29:12;;;;;;;44.97;15.70;;;;;;;;;;5041562;28;20293;-56
2021/11/11 11:31:48;;;;;;;39.95;13.57;;;;;;;;;;5048383;28;20289;-57
2021/11/11 11:34:17;;;;;;;37.85;14.77;;;;;;;;;;5046197;28;20053;-58
2021/11/11 11:36:47;;;;;;;39.67;15.30;;;;;;;;;;5047203;28;20187;-57
2021/11/11 11:39:21;;;;;;;43.30;16.23;;;;;;;;;;5059931;28;20059;-57
2021/11/11 11:41:48;;;;;;;40.58;16.58;;;;;;;;;;5057883;28;20036;-57
2021/11/11 11:44:16;;;;;;;38.17;15.80;;;;;;;;;;5057595;28;20069;-58
2021/11/11 11:46:42;;;;;;;43.70;16.63;;;;;;;;;;5044542;28;20041;-55
2021/11/11 11:49:09;;;;;;;45.55;16.92;;;;;;;;;;5062032;28;20122;-57
2021/11/11 11:51:37;;;;;;;36.42;13.88;;;;;;;;;;5048255;28;20044;-57
2021/11/11 11:54:10;;;;;;;42.80;15.15;;;;;;;;;;5051067;28;20486;-58
2021/11/11 11:56:43;;;;;;;39.00;14.93;;;;;;;;;;5039737;28;20037;-58
2021/11/11 11:59:13;;;;;;;34.17;13.75;;;;;;;;;;5062779;28;20047;-57
2021/11/11 12:01:54;;;;;;;36.95;15.52;;;;;;;;;;5057226;28;20037;-58
2021/11/11 12:09:58;;;;;;;31.83;13.85;;;;;;;;;;5059049;28;20047;-58
2021/11/11 12:12:53;;;;;;;42.33;16.48;;;;;;;;;;5043147;28;20048;-58
2021/11/11 12:15:26;;;;;;;47.03;16.33;;;;;;;;;;5039591;28;20471;-57
2021/11/11 12:40:34;;;;;;;40.63;14.32;;;;;;;;;;5054608;28;20048;-58
2021/11/11 12:43:12;;;;;;;37.78;14.13;;;;;;;;;;5060781;28;20049;-57
2021/11/11 12:45:41;;;;;;;40.35;15.32;;;;;;;;;;5056870;28;20114;-56
2021/11/11 12:48:19;;;;;;;40.08;16.70;;;;;;;;;;5061376;28;20478;-57
2021/11/11 12:50:47;;;;;;;32.08;13.93;;;;;;;;;;5056463;28;20056;-56
2021/11/11 12:53:34;;;;;;;41.50;16.60;;;;;;;;;;5054407;28;20151;-57
2021/11/11 12:56:13;;;;;;;41.60;15.48;;;;;;;;;;5056984;28;20465;-56
2021/11/11 12:58:42;;;;;;;32.10;14.15;;;;;;;;;;5062595;28;20122;-59
2021/11/11 13:01:16;;;;;;;41.88;15.32;;;;;;;;;;5045357;28;20110;-57
2021/11/11 13:03:48;;;;;;;33.67;14.23;;;;;;;;;;5063061;28;20040;-57
2021/11/11 13:06:32;;;;;;;39.72;15.23;;;;;;;;;;5052369;28;20235;-58
2021/11/11 13:08:59;;;;;;;49.00;16.20;;;;;;;;;;5041916;28;20115;-58
2021/11/11 13:11:27;;;;;;;37.85;15.60;;;;;;;;;;5057914;28;20040;-59
2021/11/11 13:14:06;;;;;;;34.63;14.57;;;;;;;;;;5062576;28;20029;-58
2021/11/11 13:16:33;;;;;;;37.78;14.35;;;;;;;;;;5059330;28;20039;-58
2021/11/11 13:19:02;;;;;;;36.78;13.95;;;;;;;;;;5064317;28;20045;-57
2021/11/11 13:21:35;;;;;;;32.63;14.43;;;;;;;;;;5059039;28;20050;-56
2021/11/11 13:24:20;;;;;;;34.22;13.75;;;;;;;;;;5047475;28;20071;-56
2021/11/11 13:27:08;;;;;;;33.53;13.00;;;;;;;;;;5039395;28;20089;-57
2021/11/11 14:00:27;;;;;;;36.35;13.05;;;;;;;;;;5082406;28;20051;-59
2021/11/11 15:17:46;;;;;;;41.03;12.73;;;;;;;;;;5058692;28;20044;-57
2021/11/11 16:02:11;;;;;;;33.13;12.73;;;;;;;;;;5042991;28;20045;-56
2021/11/11 16:21:22;;;;;;;32.80;12.82;;;;;;;;;;5037585;28;20052;-57
2021/11/11 16:24:05;;;;;;;40.33;12.80;;;;;;;;;;5054756;28;28801;-56
2021/11/11 16:26:32;;;;;;;35.97;12.95;;;;;;;;;;5059837;28;20045;-59
2021/11/11 16:29:00;;;;;;;27.13;12.32;;;;;;;;;;5059211;28;20051;-58
2021/11/11 16:31:29;;;;;;;32.42;12.80;;;;;;;;;;5062510;28;20503;-58
2021/11/11 16:33:58;;;;;;;30.55;11.93;;;;;;;;;;5047350;28;20049;-58
2021/11/11 16:36:24;;;;;;;38.75;13.07;;;;;;;;;;5043571;28;20151;-59
2021/11/11 16:38:51;;;;;;;28.10;12.75;;;;;;;;;;5039972;28;20170;-59
2021/11/11 16:41:22;;;;;;;36.70;13.02;;;;;;;;;;5045079;28;20052;-55
2021/11/11 16:43:48;;;;;;;36.22;14.02;;;;;;;;;;5040661;28;20487;-56
2021/11/11 16:46:15;;;;;;;31.23;13.70;;;;;;;;;;5043321;28;20056;-58
2021/11/11 16:48:43;;;;;;;37.55;13.90;;;;;;;;;;5041296;28;20032;-57
2021/11/11 16:51:11;;;;;;;32.17;13.03;;;;;;;;;;5064475;28;20056;-56
2021/11/11 16:53:37;;;;;;;38.17;13.52;;;;;;;;;;5059915;28;20040;-57
2021/11/11 16:56:05;;;;;;;38.38;14.88;;;;;;;;;;5064610;28;20039;-57
2021/11/11 16:58:32;;;;;;;30.35;13.07;;;;;;;;;;5047839;28;20053;-59
2021/11/11 17:00:59;;;;;;;31.85;14.02;;;;;;;;;;5054726;28;20147;-58
2021/11/11 17:03:26;;;;;;;33.17;13.80;;;;;;;;;;5050892;28;20051;-55
2021/11/11 17:05:54;;;;;;;33.03;14.40;;;;;;;;;;5054659;28;20487;-55
2021/11/11 17:08:21;;;;;;;35.75;13.60;;;;;;;;;;5057997;28;20119;-58
2021/11/11 17:10:50;;;;;;;35.00;14.48;;;;;;;;;;5046911;28;20044;-57
2021/11/11 17:13:17;;;;;;;38.03;14.63;;;;;;;;;;5053479;28;20041;-57
2021/11/11 17:15:44;;;;;;;37.33;13.93;;;;;;;;;;5051743;28;20044;-58
2021/11/11 17:18:12;;;;;;;32.97;13.90;;;;;;;;;;5055787;28;20029;-56
2021/11/11 17:20:39;;;;;;;38.87;14.73;;;;;;;;;;5049610;28;20150;-58
2021/11/11 17:23:10;;;;;;;32.35;14.65;;;;;;;;;;5054311;28;20146;-57
2021/11/11 17:25:39;;;;;;;33.10;14.32;;;;;;;;;;5049488;28;20049;-57
2021/11/11 17:28:15;;;;;;;35.20;15.20;;;;;;;;;;5055020;28;20035;-56
2021/11/11 17:30:43;;;;;;;34.33;14.15;;;;;;;;;;5045368;28;20045;-57
2021/11/11 17:33:10;;;;;;;31.83;13.45;;;;;;;;;;5054362;28;20073;-58
2021/11/11 17:35:37;;;;;;;29.85;13.60;;;;;;;;;;5050292;28;20138;-58
2021/11/11 17:38:04;;;;;;;38.47;14.60;;;;;;;;;;5054506;28;20352;-56
2021/11/11 17:40:33;;;;;;;34.20;14.00;;;;;;;;;;5046087;28;20115;-57
2021/11/11 17:42:59;;;;;;;34.42;14.35;;;;;;;;;;5074012;28;20041;-57
2021/11/11 17:45:29;;;;;;;37.60;13.80;;;;;;;;;;5047873;28;20109;-56
2021/11/11 17:47:57;;;;;;;29.88;13.50;;;;;;;;;;5052665;28;20061;-58
2021/11/11 17:50:27;;;;;;;28.77;13.98;;;;;;;;;;5047174;28;20053;-57
2021/11/11 17:53:03;;;;;;;33.83;12.93;;;;;;;;;;5051886;28;20053;-57
2021/11/11 17:55:32;;;;;;;29.67;13.60;;;;;;;;;;5048907;28;20073;-57
2021/11/11 17:58:01;;;;;;;35.72;13.35;;;;;;;;;;5058335;28;20287;-58
2021/11/11 18:00:30;;;;;;;31.45;13.90;;;;;;;;;;5052041;28;20130;-57
2021/11/11 18:03:00;;;;;;;39.40;14.18;;;;;;;;;;5049172;28;20089;-56
2021/11/11 18:05:28;;;;;;;32.15;14.52;;;;;;;;;;5050586;28;20432;-58
2021/11/11 18:07:59;;;;;;;34.80;13.43;;;;;;;;;;5047373;28;20041;-57
2021/11/11 18:10:31;;;;;;;34.85;13.45;;;;;;;;;;5053453;28;20503;-57